createdAt,value
2023-05-01T00:00:40.000Z,72.4
2023-05-01T00:01:54.000Z,72.3
2023-05-01T00:03:08.249Z,72.2
2023-05-01T00:04:22.681Z,72.4
2023-05-01T00:05:37.000Z,73
2023-05-01T00:06:51.661Z,72.8
2023-05-01T00:08:06.000Z,73
2023-05-01T00:09:20.000Z,72.3
2023-05-01T00:10:35.000Z,72.2
2023-05-01T00:11:49.000Z,72
2023-05-01T00:13:03.000Z,71.8
2023-05-01T00:14:18.000Z,71.8
2023-05-01T00:15:32.000Z,71.5
2023-05-01T00:18:01.850Z,72.6
2023-05-01T00:19:15.000Z,71.4
2023-05-01T00:20:29.000Z,71.6
2023-05-01T00:21:44.000Z,71.7
2023-05-01T00:22:58.000Z,72
2023-05-01T00:24:13.000Z,71.7
2023-05-01T00:25:27.000Z,71.2
2023-05-01T00:27:56.000Z,71
2023-05-01T00:29:11.156Z,70.9
2023-05-01T00:30:25.000Z,71
2023-05-01T00:31:40.000Z,71.2
2023-05-01T00:32:54.597Z,71.6
2023-05-01T00:34:09.072Z,71.4
2023-05-01T00:35:23.000Z,71.3
2023-05-01T00:36:37.000Z,71.6
2023-05-01T00:37:51.000Z,72.3
2023-05-01T00:39:06.000Z,72.6
2023-05-01T00:40:20.000Z,72.3
2023-05-01T00:41:34.000Z,71.8
2023-05-01T00:42:49.000Z,72.3
2023-05-01T00:44:03.000Z,72.9
2023-05-01T00:45:18.000Z,72.1
2023-05-01T00:46:32.000Z,72.3
2023-05-01T00:47:47.000Z,72.3
2023-05-01T00:49:01.000Z,72.5
2023-05-01T00:50:16.000Z,72.7
2023-05-01T00:51:30.000Z,73.1
2023-05-01T00:52:45.000Z,73.6
2023-05-01T00:53:58.796Z,73.6
2023-05-01T00:55:13.000Z,73.8
2023-05-01T00:57:42.000Z,74.2
2023-05-01T00:58:56.000Z,74.6
2023-05-01T01:00:11.000Z,74.8
2023-05-01T01:01:25.000Z,74.8
2023-05-01T01:02:40.000Z,74.9
2023-05-01T01:03:54.000Z,75.1
2023-05-01T01:05:08.000Z,75.2
2023-05-01T01:06:23.000Z,75
2023-05-01T01:07:37.000Z,75
2023-05-01T01:08:52.000Z,75.2
2023-05-01T01:10:06.000Z,75.3
2023-05-01T01:11:21.000Z,74.9
2023-05-01T01:12:34.000Z,75.4
2023-05-01T01:13:49.000Z,75.5
2023-05-01T01:15:03.000Z,75.6
2023-05-01T01:16:18.000Z,75.8
2023-05-01T01:17:32.000Z,77
2023-05-01T01:18:47.263Z,77.1
2023-05-01T01:20:01.000Z,76.8
2023-05-01T01:21:16.209Z,76.9
2023-05-01T01:22:30.658Z,77
2023-05-01T01:23:45.137Z,76.6
2023-05-01T01:24:59.000Z,76.6
2023-05-01T01:26:14.000Z,76.5
2023-05-01T01:27:28.000Z,76.5
2023-05-01T01:28:42.000Z,76.4
2023-05-01T01:29:57.000Z,76.5
2023-05-01T01:32:25.000Z,76.5
2023-05-01T01:33:39.000Z,76.6
2023-05-01T01:34:54.000Z,76.7
2023-05-01T01:36:08.000Z,76.7
2023-05-01T01:37:23.000Z,76.3
2023-05-01T01:38:37.000Z,76.3
2023-05-01T01:39:52.000Z,76.2
2023-05-01T01:42:21.000Z,75.9
2023-05-01T01:43:35.729Z,75.8
2023-05-01T01:44:50.000Z,75.5
2023-05-01T01:46:04.000Z,75.3
2023-05-01T01:47:19.000Z,74.8
2023-05-01T01:48:32.682Z,74.8
2023-05-01T01:49:47.000Z,74.7
2023-05-01T01:51:01.000Z,74.7
2023-05-01T01:52:16.000Z,74.9
2023-05-01T01:53:30.596Z,74.7
2023-05-01T01:54:45.000Z,75.2
2023-05-01T01:57:13.000Z,75.5
2023-05-01T01:58:28.000Z,76
2023-05-01T01:59:42.000Z,76.4
2023-05-01T02:02:11.000Z,76.9
2023-05-01T02:03:26.000Z,77
2023-05-01T02:04:40.000Z,77.1
2023-05-01T02:05:55.000Z,77
2023-05-01T02:07:08.000Z,77.2
2023-05-01T02:08:22.478Z,77.6
2023-05-01T02:09:36.000Z,77.8
2023-05-01T02:10:51.377Z,78
2023-05-01T02:12:05.836Z,78.2
2023-05-01T02:13:20.297Z,78.4
2023-05-01T02:14:34.000Z,78.4
2023-05-01T02:15:49.000Z,78.7
2023-05-01T02:17:03.000Z,78.3
2023-05-01T02:18:18.169Z,78.7
2023-05-01T02:19:32.000Z,79
2023-05-01T02:20:47.000Z,79.1
2023-05-01T02:22:01.000Z,78.4
2023-05-01T02:23:15.000Z,78.5
2023-05-01T02:24:29.000Z,78.4
2023-05-01T02:25:44.129Z,78
2023-05-01T02:26:58.000Z,77.8
2023-05-01T02:28:13.000Z,77.9
2023-05-01T02:29:27.000Z,78.1
2023-05-01T02:30:42.000Z,78.3
2023-05-01T02:31:55.000Z,78.4
2023-05-01T02:33:10.046Z,78.4
2023-05-01T02:34:24.000Z,79.1
2023-05-01T02:35:39.000Z,78.8
2023-05-01T02:36:53.000Z,79.1
2023-05-01T02:38:07.000Z,79.2
2023-05-01T02:39:22.000Z,79.4
2023-05-01T02:40:36.000Z,79.6
2023-05-01T02:41:51.000Z,79.5
2023-05-01T02:43:05.000Z,79
2023-05-01T02:44:20.000Z,78.8
2023-05-01T02:45:34.000Z,78.4
2023-05-01T02:46:49.000Z,78.6
2023-05-01T02:48:02.000Z,78.6
2023-05-01T02:49:17.254Z,78.5
2023-05-01T02:51:46.121Z,78.6
2023-05-01T02:53:00.000Z,78.5
2023-05-01T02:54:15.000Z,78.6
2023-05-01T02:56:43.000Z,79
2023-05-01T02:57:58.370Z,78.6
2023-05-01T02:59:12.000Z,78.8
2023-05-01T03:00:27.000Z,79.1
2023-05-01T03:01:41.000Z,79.3
2023-05-01T03:02:56.000Z,78.8
2023-05-01T03:04:10.000Z,79.1
2023-05-01T03:06:39.000Z,79.2
2023-05-01T03:07:53.000Z,79.3
2023-05-01T03:09:06.000Z,79.2
2023-05-01T03:10:21.000Z,79.3
2023-05-01T03:11:35.000Z,79
2023-05-01T03:12:49.000Z,79.2
2023-05-01T03:14:04.000Z,79.2
2023-05-01T03:15:18.000Z,79.1
2023-05-01T03:16:33.000Z,78.8
2023-05-01T03:17:47.000Z,78.8
2023-05-01T03:19:02.000Z,78.8
2023-05-01T03:20:16.000Z,79
2023-05-01T03:21:30.000Z,78.5
2023-05-01T03:22:44.397Z,78.5
2023-05-01T03:23:58.000Z,78.8
2023-05-01T03:25:12.000Z,78.8
2023-05-01T03:26:26.000Z,79
2023-05-01T03:27:41.000Z,79.1
2023-05-01T03:28:55.000Z,79.5
2023-05-01T03:30:10.000Z,80
2023-05-01T03:31:24.000Z,80.2
2023-05-01T03:33:52.000Z,80.2
2023-05-01T03:35:05.000Z,79.9
2023-05-01T03:36:20.000Z,79.5
2023-05-01T03:37:34.000Z,79.5
2023-05-01T03:38:49.000Z,79.9
2023-05-01T03:40:03.000Z,80.1
2023-05-01T03:41:17.000Z,80.3
2023-05-01T03:42:32.000Z,80.4
2023-05-01T03:43:46.000Z,80.4
2023-05-01T03:45:01.000Z,80.5
2023-05-01T03:47:30.022Z,80.1
2023-05-01T03:48:44.452Z,79.9
2023-05-01T03:49:58.000Z,79.9
2023-05-01T03:51:13.000Z,80.3
2023-05-01T03:52:26.802Z,80.8
2023-05-01T03:53:41.000Z,81.2
2023-05-01T03:54:55.000Z,81.6
2023-05-01T03:56:10.000Z,81.4
2023-05-01T03:57:24.000Z,81.3
2023-05-01T03:58:38.000Z,81
2023-05-01T03:59:53.000Z,80.8
2023-05-01T04:01:07.000Z,80.4
2023-05-01T04:02:22.000Z,80.3
2023-05-01T04:03:36.000Z,80
2023-05-01T04:04:50.000Z,79.7
2023-05-01T04:06:05.000Z,79.5
2023-05-01T04:07:19.000Z,78.9
2023-05-01T04:08:34.000Z,78.5
2023-05-01T04:09:47.000Z,78.3
2023-05-01T04:11:02.000Z,78.4
2023-05-01T04:12:16.561Z,78.2
2023-05-01T04:13:30.000Z,78
2023-05-01T04:14:45.000Z,77.6
2023-05-01T04:15:59.000Z,77.3
2023-05-01T04:17:14.000Z,76.8
2023-05-01T04:18:28.000Z,77.1
2023-05-01T04:19:43.000Z,76.4
2023-05-01T04:20:57.000Z,76.5
2023-05-01T04:22:11.000Z,76.4
2023-05-01T04:23:26.000Z,76.3
2023-05-01T04:24:40.000Z,76.1
2023-05-01T04:25:55.000Z,75.9
2023-05-01T04:27:08.000Z,74.9
2023-05-01T04:28:23.000Z,73.5
2023-05-01T04:29:37.000Z,73.4
2023-05-01T04:30:51.000Z,72.9
2023-05-01T04:32:06.000Z,73
2023-05-01T04:33:20.000Z,72.9
2023-05-01T04:34:35.000Z,72.4
2023-05-01T04:37:03.000Z,71.6
2023-05-01T04:38:18.000Z,71.3
2023-05-01T04:39:32.000Z,71.1
2023-05-01T04:40:47.000Z,70.6
2023-05-01T04:42:01.000Z,69.7
2023-05-01T04:43:16.000Z,69.4
2023-05-01T04:44:30.000Z,68.8
2023-05-01T04:45:43.000Z,68
2023-05-01T04:46:58.000Z,68.3
2023-05-01T04:48:12.000Z,68
2023-05-01T04:49:27.000Z,67
2023-05-01T04:50:41.625Z,67.2
2023-05-01T04:51:56.000Z,66.4
2023-05-01T04:53:10.456Z,67.5
2023-05-01T04:54:24.864Z,67.7
2023-05-01T04:55:39.000Z,67.3
2023-05-01T04:56:53.000Z,67.3
2023-05-01T04:58:08.000Z,67.6
2023-05-01T04:59:22.000Z,66.8
2023-05-01T05:00:36.000Z,66.8
2023-05-01T05:01:50.000Z,68.8
2023-05-01T05:03:04.000Z,67.8
2023-05-01T05:04:19.000Z,68.9
2023-05-01T05:05:33.000Z,69.3
2023-05-01T05:06:48.000Z,69.4
2023-05-01T05:08:02.000Z,69.3
2023-05-01T05:09:16.000Z,69
2023-05-01T05:10:31.000Z,68.2
2023-05-01T05:11:45.000Z,67.3
2023-05-01T05:13:00.000Z,66.4
2023-05-01T05:15:29.000Z,62.2
2023-05-01T05:16:43.000Z,62
2023-05-01T05:17:56.956Z,59.9
2023-05-01T05:19:11.385Z,59.9
2023-05-01T05:20:25.000Z,59.7
2023-05-01T05:21:40.000Z,59.4
2023-05-01T05:22:54.000Z,59.8
2023-05-01T05:24:09.000Z,59
2023-05-01T05:25:23.000Z,58.6
2023-05-01T05:26:37.852Z,58
2023-05-01T05:27:52.000Z,56.9
2023-05-01T05:29:06.000Z,54.7
2023-05-01T05:30:21.000Z,54
2023-05-01T05:31:35.000Z,53.9
2023-05-01T05:32:49.000Z,53
2023-05-01T05:34:04.000Z,53.3
2023-05-01T05:35:18.000Z,53.3
2023-05-01T05:36:33.000Z,53.9
2023-05-01T05:37:46.000Z,53.9
2023-05-01T05:40:15.000Z,55
2023-05-01T05:41:29.000Z,54.6
2023-05-01T05:42:44.000Z,55.5
2023-05-01T05:43:58.000Z,54.6
2023-05-01T05:45:13.000Z,54.7
2023-05-01T05:46:27.000Z,54.9
2023-05-01T05:47:42.000Z,53.2
2023-05-01T05:48:56.000Z,52
2023-05-01T05:50:10.000Z,51.6
2023-05-01T05:51:25.000Z,51.1
2023-05-01T05:52:39.658Z,50.7
2023-05-01T05:53:54.000Z,50.1
2023-05-01T05:55:08.000Z,49.9
2023-05-01T05:56:22.000Z,49.5
2023-05-01T05:57:37.000Z,48.1
2023-05-01T05:58:51.000Z,47.6
2023-05-01T06:00:05.000Z,46.8
2023-05-01T06:01:19.000Z,46.3
2023-05-01T06:02:34.000Z,46.4
2023-05-01T06:03:48.508Z,44.7
2023-05-01T06:05:02.000Z,45.2
2023-05-01T06:06:17.318Z,44.6
2023-05-01T06:07:31.000Z,42.6
2023-05-01T06:08:46.157Z,41.7
2023-05-01T06:10:00.000Z,42.4
2023-05-01T06:11:15.000Z,42.8
2023-05-01T06:12:29.000Z,43.6
2023-05-01T06:13:43.000Z,43.3
2023-05-01T06:14:58.000Z,43
2023-05-01T06:16:11.754Z,42.8
2023-05-01T06:17:26.000Z,43.5
2023-05-01T06:18:40.584Z,42.8
2023-05-01T06:19:55.000Z,43.2
2023-05-01T06:21:09.000Z,43
2023-05-01T06:22:23.000Z,44.5
2023-05-01T06:23:38.000Z,44.7
2023-05-01T06:24:52.000Z,43.7
2023-05-01T06:26:07.000Z,43.3
2023-05-01T06:27:21.000Z,43.4
2023-05-01T06:28:35.000Z,43.4
2023-05-01T06:29:50.315Z,43.6
2023-05-01T06:31:04.000Z,43.8
2023-05-01T06:32:19.000Z,43.4
2023-05-01T06:34:47.000Z,41.7
2023-05-01T06:36:02.000Z,41
2023-05-01T06:37:16.000Z,41.4
2023-05-01T06:38:31.000Z,42.4
2023-05-01T06:39:45.000Z,38.9
2023-05-01T06:41:00.038Z,38.9
2023-05-01T06:42:14.436Z,39.2
2023-05-01T06:43:28.000Z,37.2
2023-05-01T06:44:43.000Z,37.5
2023-05-01T06:45:56.000Z,37.5
2023-05-01T06:47:11.000Z,36.1
2023-05-01T06:48:25.000Z,36
2023-05-01T06:49:40.000Z,36.5
2023-05-01T06:50:54.453Z,36.1
2023-05-01T06:52:08.000Z,36.3
2023-05-01T06:54:37.000Z,34.7
2023-05-01T06:55:52.000Z,34.4
2023-05-01T06:57:06.000Z,33.4
2023-05-01T06:58:20.000Z,33.9
2023-05-01T06:59:35.000Z,34
2023-05-01T07:00:49.000Z,34.7
2023-05-01T07:02:04.000Z,34.1
2023-05-01T07:03:18.000Z,33.5
2023-05-01T07:04:33.000Z,33.6
2023-05-01T07:05:46.000Z,33
2023-05-01T07:07:00.000Z,32.3
2023-05-01T07:08:15.000Z,32.4
2023-05-01T07:09:29.791Z,31.8
2023-05-01T07:10:44.000Z,30.9
2023-05-01T07:11:58.000Z,31.3
2023-05-01T07:13:13.000Z,29
2023-05-01T07:14:27.000Z,30
2023-05-01T07:15:41.000Z,30.5
2023-05-01T07:16:56.000Z,30
2023-05-01T07:18:10.000Z,30.2
2023-05-01T07:19:25.000Z,29.4
2023-05-01T07:20:39.000Z,29.5
2023-05-01T07:21:53.932Z,30.2
2023-05-01T07:23:08.000Z,30.4
2023-05-01T07:24:21.000Z,30.7
2023-05-01T07:25:36.000Z,32.3
2023-05-01T07:26:50.000Z,31.5
2023-05-01T07:28:05.000Z,31.3
2023-05-01T07:29:19.000Z,31.7
2023-05-01T07:30:33.000Z,31.3
2023-05-01T07:31:48.000Z,31.9
2023-05-01T07:33:02.000Z,31.3
2023-05-01T07:34:17.000Z,31.5
2023-05-01T07:35:31.000Z,31.8
2023-05-01T07:36:46.000Z,31.8
2023-05-01T07:38:00.000Z,32
2023-05-01T07:39:14.000Z,31.7
2023-05-01T07:40:28.000Z,32
2023-05-01T07:41:42.000Z,33.3
2023-05-01T07:42:57.000Z,30.9
2023-05-01T07:44:11.000Z,31.8
2023-05-01T07:45:26.000Z,32.2
2023-05-01T07:46:40.000Z,32.9
2023-05-01T07:47:54.000Z,32.1
2023-05-01T07:49:08.000Z,33.3
2023-05-01T07:50:22.000Z,33
2023-05-01T07:51:37.000Z,32.3
2023-05-01T07:52:51.000Z,32
2023-05-01T07:54:06.000Z,32.9
2023-05-01T07:55:20.000Z,32.9
2023-05-01T07:56:34.000Z,31
2023-05-01T07:57:49.000Z,31.3
2023-05-01T07:59:03.000Z,29.9
2023-05-01T08:00:18.000Z,30.2
2023-05-01T08:01:32.535Z,29
2023-05-01T08:02:46.000Z,28.8
2023-05-01T08:04:00.000Z,29.4
2023-05-01T08:05:14.000Z,29.4
2023-05-01T08:06:29.000Z,29.4
2023-05-01T08:07:43.000Z,29.6
2023-05-01T08:08:58.000Z,30.1
2023-05-01T08:10:12.000Z,30.1
2023-05-01T08:11:26.000Z,30.5
2023-05-01T08:12:41.000Z,29.4
2023-05-01T08:13:55.000Z,28.7
2023-05-01T08:15:10.000Z,28.7
2023-05-01T08:16:24.634Z,29.9
2023-05-01T08:17:39.000Z,29.3
2023-05-01T08:18:53.000Z,30.3
2023-05-01T08:20:07.000Z,29.4
2023-05-01T08:21:21.000Z,28.9
2023-05-01T08:22:35.000Z,28.6
2023-05-01T08:23:50.233Z,28.8
2023-05-01T08:25:04.000Z,29.1
2023-05-01T08:26:19.000Z,29.6
2023-05-01T08:27:33.000Z,28.4
2023-05-01T08:28:47.000Z,29.4
2023-05-01T08:30:02.309Z,28.3
2023-05-01T08:31:16.000Z,27.9
2023-05-01T08:32:31.000Z,28.4
2023-05-01T08:33:45.545Z,29.9
2023-05-01T08:34:59.000Z,30.2
2023-05-01T08:36:13.000Z,29.7
2023-05-01T08:37:27.000Z,29.7
2023-05-01T08:38:42.000Z,30.3
2023-05-01T08:39:56.000Z,28.8
2023-05-01T08:41:11.000Z,29.6
2023-05-01T08:42:25.000Z,28.4
2023-05-01T08:43:39.000Z,28
2023-05-01T08:44:54.000Z,28.8
2023-05-01T08:46:08.000Z,29
2023-05-01T08:47:23.000Z,29.5
2023-05-01T08:48:37.000Z,30.6
2023-05-01T08:49:52.000Z,29.2
2023-05-01T08:51:06.000Z,30.3
2023-05-01T08:52:20.000Z,30.3
2023-05-01T08:53:34.000Z,29.5
2023-05-01T08:54:48.000Z,30.2
2023-05-01T08:56:03.000Z,30.5
2023-05-01T08:57:17.648Z,31.6
2023-05-01T08:58:32.000Z,30.5
2023-05-01T08:59:46.000Z,30.5
2023-05-01T09:01:00.000Z,31.6
2023-05-01T09:02:15.000Z,32.5
2023-05-01T09:03:29.000Z,33.2
2023-05-01T09:04:44.000Z,35.1
2023-05-01T09:05:58.000Z,34.7
2023-05-01T09:07:12.000Z,34.1
2023-05-01T09:08:26.493Z,35.8
2023-05-01T09:09:40.000Z,34.2
2023-05-01T09:10:55.000Z,35.6
2023-05-01T09:12:09.000Z,35.9
2023-05-01T09:13:24.000Z,35.5
2023-05-01T09:14:38.000Z,35.5
2023-05-01T09:15:52.000Z,35.4
2023-05-01T09:17:07.000Z,35.7
2023-05-01T09:18:21.000Z,36.8
2023-05-01T09:19:36.000Z,36.7
2023-05-01T09:20:50.000Z,35.9
2023-05-01T09:22:05.035Z,37.5
2023-05-01T09:23:19.000Z,36.5
2023-05-01T09:24:33.000Z,36.2
2023-05-01T09:25:48.000Z,36.4
2023-05-01T09:27:01.000Z,37.2
2023-05-01T09:28:16.000Z,38.3
2023-05-01T09:29:30.000Z,39.1
2023-05-01T09:30:45.000Z,37.7
2023-05-01T09:33:13.000Z,39.7
2023-05-01T09:34:28.000Z,38.6
2023-05-01T09:35:42.000Z,38.4
2023-05-01T09:36:57.000Z,39.5
2023-05-01T09:38:11.000Z,39.7
2023-05-01T09:39:25.000Z,39.9
2023-05-01T09:40:40.000Z,39.5
2023-05-01T09:41:54.000Z,38.2
2023-05-01T09:43:09.000Z,37.1
2023-05-01T09:44:22.000Z,37.5
2023-05-01T09:45:37.136Z,37.9
2023-05-01T09:46:51.000Z,39
2023-05-01T09:48:05.000Z,39.6
2023-05-01T09:49:20.000Z,40.9
2023-05-01T09:50:34.000Z,39.8
2023-05-01T09:51:49.000Z,39.9
2023-05-01T09:53:03.000Z,39.8
2023-05-01T09:54:18.000Z,39.8
2023-05-01T09:55:32.000Z,43
2023-05-01T09:56:46.000Z,42.8
2023-05-01T09:58:01.000Z,42.5
2023-05-01T09:59:15.000Z,41.7
2023-05-01T10:00:29.000Z,40.5
2023-05-01T10:01:43.000Z,38.2
2023-05-01T10:02:58.000Z,38.4
2023-05-01T10:04:12.000Z,39
2023-05-01T10:05:26.000Z,39.9
2023-05-01T10:06:41.000Z,38.8
2023-05-01T10:07:55.000Z,38
2023-05-01T10:09:10.000Z,39.2
2023-05-01T10:10:24.000Z,37.6
2023-05-01T10:11:38.000Z,37.3
2023-05-01T10:12:53.000Z,36.9
2023-05-01T10:14:07.000Z,35.8
2023-05-01T10:15:22.000Z,37
2023-05-01T10:16:35.000Z,37.7
2023-05-01T10:17:50.000Z,39.3
2023-05-01T10:19:04.000Z,35.6
2023-05-01T10:20:18.000Z,38.4
2023-05-01T10:21:33.368Z,37.5
2023-05-01T10:22:47.000Z,38.2
2023-05-01T10:24:02.000Z,36.2
2023-05-01T10:25:16.000Z,38
2023-05-01T10:26:31.015Z,38
2023-05-01T10:27:45.000Z,36.1
2023-05-01T10:28:59.000Z,36.2
2023-05-01T10:30:14.000Z,37.7
2023-05-01T10:31:28.000Z,37.1
2023-05-01T10:32:43.000Z,39.5
2023-05-01T10:33:56.000Z,35.5
2023-05-01T10:35:11.000Z,35.8
2023-05-01T10:36:25.000Z,35
2023-05-01T10:37:39.000Z,36.9
2023-05-01T10:38:54.000Z,38.8
2023-05-01T10:40:08.000Z,38.3
2023-05-01T10:41:23.000Z,38.8
2023-05-01T10:42:37.000Z,39.4
2023-05-01T10:43:51.000Z,39.1
2023-05-01T10:45:06.000Z,39.8
2023-05-01T10:46:20.000Z,40.5
2023-05-01T10:47:35.000Z,39.1
2023-05-01T10:48:49.000Z,39.3
2023-05-01T10:50:04.000Z,40.1
2023-05-01T10:52:31.000Z,38
2023-05-01T10:53:46.000Z,37.5
2023-05-01T10:55:00.000Z,38.3
2023-05-01T10:56:15.000Z,38.6
2023-05-01T10:57:29.597Z,38.8
2023-05-01T10:58:44.000Z,40.9
2023-05-01T10:59:58.000Z,41
2023-05-01T11:01:12.000Z,40.1
2023-05-01T11:02:27.261Z,39.3
2023-05-01T11:03:41.000Z,39
2023-05-01T11:04:56.000Z,37.7
2023-05-01T11:06:10.000Z,37.8
2023-05-01T11:07:24.000Z,38
2023-05-01T11:08:38.000Z,38.1
2023-05-01T11:09:52.000Z,39.4
2023-05-01T11:11:07.000Z,40.2
2023-05-01T11:12:21.693Z,40.5
2023-05-01T11:13:36.000Z,37.6
2023-05-01T11:14:50.000Z,37.7
2023-05-01T11:16:04.000Z,36.5
2023-05-01T11:17:19.000Z,37
2023-05-01T11:18:33.000Z,36.4
2023-05-01T11:19:48.000Z,37.4
2023-05-01T11:21:02.000Z,36.3
2023-05-01T11:22:17.000Z,35.9
2023-05-01T11:23:30.000Z,35.5
2023-05-01T11:24:44.000Z,36.4
2023-05-01T11:27:13.756Z,38.4
2023-05-01T11:28:28.000Z,38.5
2023-05-01T11:29:42.000Z,39.6
2023-05-01T11:30:57.000Z,40
2023-05-01T11:32:11.000Z,37.9
2023-05-01T11:33:25.000Z,37.9
2023-05-01T11:34:40.000Z,36.9
2023-05-01T11:35:54.000Z,38.2
2023-05-01T11:37:09.000Z,37.8
2023-05-01T11:38:23.000Z,37.1
2023-05-01T11:39:37.000Z,38.6
2023-05-01T11:40:52.000Z,39.1
2023-05-01T11:42:05.000Z,41
2023-05-01T11:43:20.000Z,41.9
2023-05-01T11:44:34.000Z,43
2023-05-01T11:47:03.503Z,40
2023-05-01T11:48:17.000Z,41.8
2023-05-01T11:49:32.000Z,39.2
2023-05-01T11:50:46.000Z,40.8
2023-05-01T11:52:01.158Z,41.9
2023-05-01T11:53:15.000Z,43.9
2023-05-01T11:54:30.000Z,41.9
2023-05-01T11:55:44.000Z,40.3
2023-05-01T11:56:57.931Z,41.4
2023-05-01T11:58:12.000Z,38.8
2023-05-01T12:00:41.000Z,40.1
2023-05-01T12:01:55.579Z,37.1
2023-05-01T12:03:10.000Z,35.8
2023-05-01T12:04:24.000Z,38.3
2023-05-01T12:05:38.000Z,39.2
2023-05-01T12:06:53.000Z,38.6
2023-05-01T12:08:07.000Z,38.5
2023-05-01T12:09:22.000Z,39.3
2023-05-01T12:10:36.000Z,38.2
2023-05-01T12:11:50.000Z,39.1
2023-05-01T12:13:04.000Z,40.6
2023-05-01T12:14:18.000Z,40.2
2023-05-01T12:15:33.000Z,38.7
2023-05-01T12:16:47.000Z,38.7
2023-05-01T12:18:02.000Z,39.4
2023-05-01T12:19:16.000Z,42.2
2023-05-01T12:20:30.000Z,44
2023-05-01T12:21:45.000Z,45.3
2023-05-01T12:22:59.000Z,44.3
2023-05-01T12:24:14.000Z,42.5
2023-05-01T12:26:42.964Z,45.4
2023-05-01T12:27:57.000Z,45.6
2023-05-01T12:29:10.000Z,45
2023-05-01T12:30:25.000Z,46.1
2023-05-01T12:31:39.000Z,44.9
2023-05-01T12:32:54.000Z,45.7
2023-05-01T12:34:08.000Z,45.8
2023-05-01T12:35:23.000Z,46.7
2023-05-01T12:36:37.000Z,46.1
2023-05-01T12:37:51.000Z,50
2023-05-01T12:39:06.000Z,47.9
2023-05-01T12:40:20.000Z,47.6
2023-05-01T12:42:49.000Z,45.4
2023-05-01T12:44:03.000Z,44.8
2023-05-01T12:46:32.000Z,42.6
2023-05-01T12:47:46.000Z,44.7
2023-05-01T12:49:00.000Z,46.9
2023-05-01T12:50:15.000Z,45
2023-05-01T12:51:29.502Z,42
2023-05-01T12:52:43.916Z,45
2023-05-01T12:53:58.000Z,45.4
2023-05-01T12:55:12.000Z,44.6
2023-05-01T12:56:26.000Z,41.5
2023-05-01T12:57:40.000Z,41.5
2023-05-01T12:58:55.000Z,41.3
2023-05-01T13:00:09.000Z,41.9
2023-05-01T13:01:23.000Z,41.8
2023-05-01T13:02:36.000Z,42.5
2023-05-01T13:03:51.000Z,43.5
2023-05-01T13:05:05.000Z,40.3
2023-05-01T13:06:19.000Z,41.4
2023-05-01T13:07:34.000Z,40.9
2023-05-01T13:08:48.000Z,41.8
2023-05-01T13:10:03.000Z,40.3
2023-05-01T13:11:17.000Z,41.7
2023-05-01T13:12:31.000Z,39.7
2023-05-01T13:13:46.000Z,40.5
2023-05-01T13:15:00.000Z,40.3
2023-05-01T13:16:15.000Z,39.2
2023-05-01T13:17:29.000Z,41.2
2023-05-01T13:18:43.979Z,39.7
2023-05-01T13:19:57.000Z,40.3
2023-05-01T13:21:11.000Z,41
2023-05-01T13:22:26.000Z,38
2023-05-01T13:23:40.000Z,38.9
2023-05-01T13:24:55.000Z,38.8
2023-05-01T13:26:09.000Z,39
2023-05-01T13:27:24.000Z,38.1
2023-05-01T13:28:38.000Z,39.4
2023-05-01T13:29:52.000Z,40.7
2023-05-01T13:31:07.000Z,38.5
2023-05-01T13:32:21.660Z,37.5
2023-05-01T13:33:36.000Z,41
2023-05-01T13:34:50.000Z,40.7
2023-05-01T13:36:04.000Z,39.1
2023-05-01T13:37:18.000Z,41
2023-05-01T13:38:32.000Z,40.9
2023-05-01T13:39:47.000Z,40.2
2023-05-01T13:41:01.000Z,36.8
2023-05-01T13:42:16.000Z,37.2
2023-05-01T13:43:30.000Z,37.6
2023-05-01T13:44:44.000Z,41
2023-05-01T13:45:59.000Z,41.7
2023-05-01T13:47:13.000Z,41.6
2023-05-01T13:48:28.000Z,39.3
2023-05-01T13:50:56.000Z,38.7
2023-05-01T13:52:11.000Z,38
2023-05-01T13:53:25.000Z,39.6
2023-05-01T13:54:40.000Z,37.4
2023-05-01T13:55:54.000Z,39.6
2023-05-01T13:57:08.000Z,38.6
2023-05-01T13:58:22.000Z,39.5
2023-05-01T13:59:37.000Z,39.5
2023-05-01T14:00:51.000Z,40.7
2023-05-01T14:02:05.000Z,39.2
2023-05-01T14:03:20.000Z,38.6
2023-05-01T14:04:34.000Z,40.1
2023-05-01T14:05:49.000Z,37.7
2023-05-01T14:07:03.481Z,37.3
2023-05-01T14:08:17.879Z,39.4
2023-05-01T14:09:32.000Z,40.3
2023-05-01T14:10:46.000Z,38.1
2023-05-01T14:12:01.000Z,38.3
2023-05-01T14:13:15.538Z,40.1
2023-05-01T14:15:44.000Z,40.3
2023-05-01T14:16:57.000Z,37.2
2023-05-01T14:18:12.000Z,36.8
2023-05-01T14:19:26.000Z,37.9
2023-05-01T14:20:41.000Z,36.2
2023-05-01T14:21:55.000Z,35.4
2023-05-01T14:23:09.000Z,35.9
2023-05-01T14:24:24.000Z,36.4
2023-05-01T14:25:38.783Z,36.7
2023-05-01T14:26:53.000Z,37.1
2023-05-01T14:28:07.000Z,35.6
2023-05-01T14:29:22.000Z,36
2023-05-01T14:30:36.000Z,36.5
2023-05-01T14:31:50.000Z,37.8
2023-05-01T14:33:05.267Z,41.2
2023-05-01T14:34:18.000Z,36.6
2023-05-01T14:35:33.000Z,36.1
2023-05-01T14:36:47.000Z,35.7
2023-05-01T14:38:02.000Z,36
2023-05-01T14:39:16.000Z,35.6
2023-05-01T14:40:30.000Z,37.4
2023-05-01T14:41:45.000Z,36
2023-05-01T14:42:59.000Z,36.1
2023-05-01T14:44:14.000Z,36.1
2023-05-01T14:45:28.000Z,39.1
2023-05-01T14:46:42.000Z,43.2
2023-05-01T14:47:57.000Z,41.4
2023-05-01T14:49:11.000Z,43.3
2023-05-01T14:50:25.000Z,44.5
2023-05-01T14:51:39.691Z,45.2
2023-05-01T14:52:54.000Z,48.1
2023-05-01T14:54:08.000Z,46
2023-05-01T14:55:22.000Z,44.1
2023-05-01T14:56:37.356Z,45
2023-05-01T14:57:51.000Z,46.3
2023-05-01T14:59:06.000Z,45.1
2023-05-01T15:00:20.000Z,45.7
2023-05-01T15:01:35.000Z,45.5
2023-05-01T15:02:49.000Z,46.8
2023-05-01T15:05:18.000Z,46.1
2023-05-01T15:06:31.000Z,46.4
2023-05-01T15:07:46.000Z,45.5
2023-05-01T15:09:00.000Z,45.3
2023-05-01T15:10:15.000Z,45.6
2023-05-01T15:11:29.000Z,47.5
2023-05-01T15:12:43.858Z,46.7
2023-05-01T15:13:58.000Z,46.2
2023-05-01T15:15:12.000Z,45.9
2023-05-01T15:16:27.000Z,47
2023-05-01T15:17:41.000Z,45.1
2023-05-01T15:18:55.000Z,46.1
2023-05-01T15:20:10.340Z,46.1
2023-05-01T15:21:24.000Z,46.7
2023-05-01T15:22:38.000Z,46.5
2023-05-01T15:23:52.000Z,45.8
2023-05-01T15:25:07.113Z,45.7
2023-05-01T15:26:21.546Z,46
2023-05-01T15:27:35.000Z,45.8
2023-05-01T15:28:50.000Z,47.6
2023-05-01T15:30:04.000Z,45.9
2023-05-01T15:31:19.195Z,45.3
2023-05-01T15:32:33.000Z,45.9
2023-05-01T15:33:48.000Z,46.8
2023-05-01T15:35:02.000Z,45.5
2023-05-01T15:36:16.000Z,45.7
2023-05-01T15:37:31.000Z,48.1
2023-05-01T15:38:45.000Z,47.7
2023-05-01T15:40:00.000Z,45.6
2023-05-01T15:41:13.000Z,46.9
2023-05-01T15:42:28.000Z,46.6
2023-05-01T15:43:42.000Z,47.3
2023-05-01T15:44:56.000Z,44.5
2023-05-01T15:46:11.000Z,45.9
2023-05-01T15:47:25.000Z,45.9
2023-05-01T15:48:40.000Z,46.3
2023-05-01T15:49:54.000Z,46.7
2023-05-01T15:51:08.000Z,47.4
2023-05-01T15:52:23.000Z,47.3
2023-05-01T15:53:37.000Z,48.1
2023-05-01T15:54:52.000Z,48
2023-05-01T15:56:06.000Z,47.3
2023-05-01T15:57:20.000Z,48.3
2023-05-01T15:58:35.000Z,47.1
2023-05-01T15:59:48.000Z,49.5
2023-05-01T16:01:03.000Z,47.7
2023-05-01T16:02:17.000Z,47.4
2023-05-01T16:03:32.000Z,48.4
2023-05-01T16:04:46.000Z,47.7
2023-05-01T16:06:00.000Z,46
2023-05-01T16:07:14.000Z,45.5
2023-05-01T16:08:28.000Z,45
2023-05-01T16:09:43.000Z,46.1
2023-05-01T16:10:57.000Z,45.2
2023-05-01T16:12:12.000Z,45.6
2023-05-01T16:13:26.000Z,45.5
2023-05-01T16:14:41.000Z,45.4
2023-05-01T16:15:55.000Z,46.3
2023-05-01T16:18:24.000Z,45
2023-05-01T16:19:38.000Z,46.3
2023-05-01T16:20:53.000Z,44.3
2023-05-01T16:22:07.000Z,45.3
2023-05-01T16:23:21.000Z,44.9
2023-05-01T16:24:35.000Z,44.1
2023-05-01T16:25:49.000Z,45
2023-05-01T16:27:04.000Z,45.4
2023-05-01T16:28:18.000Z,45.7
2023-05-01T16:29:33.000Z,45.7
2023-05-01T16:30:47.000Z,46.1
2023-05-01T16:32:01.000Z,45.4
2023-05-01T16:33:16.000Z,45.9
2023-05-01T16:34:30.758Z,45.1
2023-05-01T16:35:45.000Z,45.1
2023-05-01T16:36:59.000Z,45.4
2023-05-01T16:38:14.000Z,45.5
2023-05-01T16:39:28.000Z,46.6
2023-05-01T16:40:41.000Z,47.7
2023-05-01T16:41:56.000Z,47.1
2023-05-01T16:44:25.180Z,48.8
2023-05-01T16:45:39.000Z,49.4
2023-05-01T16:46:54.000Z,50.7
2023-05-01T16:48:08.000Z,51
2023-05-01T16:49:22.000Z,50.8
2023-05-01T16:50:37.000Z,50.5
2023-05-01T16:51:51.000Z,48
2023-05-01T16:53:06.000Z,47.9
2023-05-01T16:54:20.000Z,48.2
2023-05-01T16:55:34.000Z,47.8
2023-05-01T16:56:49.000Z,48.4
2023-05-01T16:59:18.140Z,47.8
2023-05-01T17:00:31.000Z,47.5
2023-05-01T17:01:46.000Z,48.4
2023-05-01T17:03:00.000Z,49
2023-05-01T17:04:14.000Z,50.7
2023-05-01T17:05:29.000Z,53.1
2023-05-01T17:06:43.000Z,49
2023-05-01T17:07:58.000Z,51.5
2023-05-01T17:09:12.000Z,52
2023-05-01T17:10:26.000Z,51
2023-05-01T17:11:41.000Z,53.1
2023-05-01T17:12:55.000Z,52.1
2023-05-01T17:14:10.000Z,51.9
2023-05-01T17:15:24.000Z,52.6
2023-05-01T17:16:39.000Z,52.6